sensor_id;sensor_type;location;lat;lon;timestamp;temperature;humidity
18502;DHT22;68437;52.236;5.710;2023-07-09T00:00:14;21.90;99.90
18502;DHT22;68437;52.236;5.710;2023-07-09T00:02:41;21.90;99.90
18502;DHT22;68437;52.236;5.710;2023-07-09T00:05:12;21.90;99.90
18502;DHT22;68437;52.236;5.710;2023-07-09T00:07:39;21.80;99.90
18502;DHT22;68437;52.236;5.710;2023-07-09T00:10:17;21.80;99.90
18502;DHT22;68437;52.236;5.710;2023-07-09T00:12:44;21.80;99.90
18502;DHT22;68437;52.236;5.710;2023-07-09T00:15:11;21.80;99.90
18502;DHT22;68437;52.236;5.710;2023-07-09T00:17:39;21.70;99.90
18502;DHT22;68437;52.236;5.710;2023-07-09T00:20:11;21.70;99.90
18502;DHT22;68437;52.236;5.710;2023-07-09T00:22:39;21.70;99.90
18502;DHT22;68437;52.236;5.710;2023-07-09T00:25:09;21.70;99.90
18502;DHT22;68437;52.236;5.710;2023-07-09T00:27:39;21.70;99.90
18502;DHT22;68437;52.236;5.710;2023-07-09T00:30:13;21.60;99.90
18502;DHT22;68437;52.236;5.710;2023-07-09T00:32:42;21.60;99.90
18502;DHT22;68437;52.236;5.710;2023-07-09T00:35:13;21.60;99.90
18502;DHT22;68437;52.236;5.710;2023-07-09T00:37:41;21.50;99.90
18502;DHT22;68437;52.236;5.710;2023-07-09T00:40:14;21.50;99.90
18502;DHT22;68437;52.236;5.710;2023-07-09T00:42:44;21.50;99.90
18502;DHT22;68437;52.236;5.710;2023-07-09T00:45:19;21.40;99.90
18502;DHT22;68437;52.236;5.710;2023-07-09T00:47:50;21.50;99.90
18502;DHT22;68437;52.236;5.710;2023-07-09T00:50:35;21.40;99.90
18502;DHT22;68437;52.236;5.710;2023-07-09T00:53:10;21.40;99.90
18502;DHT22;68437;52.236;5.710;2023-07-09T00:55:41;21.30;99.90
18502;DHT22;68437;52.236;5.710;2023-07-09T00:58:13;21.20;99.90
18502;DHT22;68437;52.236;5.710;2023-07-09T01:00:45;21.20;99.90
18502;DHT22;68437;52.236;5.710;2023-07-09T01:03:19;21.20;99.90
18502;DHT22;68437;52.236;5.710;2023-07-09T01:05:49;21.20;99.90
18502;DHT22;68437;52.236;5.710;2023-07-09T01:08:17;21.10;99.90
18502;DHT22;68437;52.236;5.710;2023-07-09T01:10:45;21.20;99.90
18502;DHT22;68437;52.236;5.710;2023-07-09T01:13:12;21.20;99.90
18502;DHT22;68437;52.236;5.710;2023-07-09T01:15:40;21.20;99.90
18502;DHT22;68437;52.236;5.710;2023-07-09T01:18:07;21.10;99.90
18502;DHT22;68437;52.236;5.710;2023-07-09T01:20:38;21.10;99.90
18502;DHT22;68437;52.236;5.710;2023-07-09T01:23:07;21.10;99.90
18502;DHT22;68437;52.236;5.710;2023-07-09T01:25:36;21.10;99.90
18502;DHT22;68437;52.236;5.710;2023-07-09T01:28:04;21.10;99.90
18502;DHT22;68437;52.236;5.710;2023-07-09T01:30:35;21.00;99.90
18502;DHT22;68437;52.236;5.710;2023-07-09T01:33:02;21.00;99.90
18502;DHT22;68437;52.236;5.710;2023-07-09T01:35:34;21.00;99.90
18502;DHT22;68437;52.236;5.710;2023-07-09T01:38:02;20.90;99.90
18502;DHT22;68437;52.236;5.710;2023-07-09T01:40:33;20.90;99.90
18502;DHT22;68437;52.236;5.710;2023-07-09T01:43:02;21.00;99.90
18502;DHT22;68437;52.236;5.710;2023-07-09T01:45:32;21.00;99.90
18502;DHT22;68437;52.236;5.710;2023-07-09T01:48:00;21.10;99.90
18502;DHT22;68437;52.236;5.710;2023-07-09T01:50:28;21.10;99.90
18502;DHT22;68437;52.236;5.710;2023-07-09T01:52:55;21.00;99.90
18502;DHT22;68437;52.236;5.710;2023-07-09T01:55:23;21.00;99.90
18502;DHT22;68437;52.236;5.710;2023-07-09T01:57:51;21.00;99.90
18502;DHT22;68437;52.236;5.710;2023-07-09T02:00:19;21.00;99.90
18502;DHT22;68437;52.236;5.710;2023-07-09T02:02:48;21.00;99.90
18502;DHT22;68437;52.236;5.710;2023-07-09T02:05:18;21.00;99.90
18502;DHT22;68437;52.236;5.710;2023-07-09T02:07:46;21.00;99.90
18502;DHT22;68437;52.236;5.710;2023-07-09T02:10:14;20.90;99.90
18502;DHT22;68437;52.236;5.710;2023-07-09T02:12:41;20.80;99.90
18502;DHT22;68437;52.236;5.710;2023-07-09T02:15:11;20.80;99.90
18502;DHT22;68437;52.236;5.710;2023-07-09T02:17:41;20.80;99.90
18502;DHT22;68437;52.236;5.710;2023-07-09T02:20:09;20.70;99.90
18502;DHT22;68437;52.236;5.710;2023-07-09T02:22:37;20.70;99.90
18502;DHT22;68437;52.236;5.710;2023-07-09T02:25:05;20.70;99.90
18502;DHT22;68437;52.236;5.710;2023-07-09T02:27:32;20.70;99.90
18502;DHT22;68437;52.236;5.710;2023-07-09T02:30:00;20.60;99.90
18502;DHT22;68437;52.236;5.710;2023-07-09T02:32:29;20.60;99.90
18502;DHT22;68437;52.236;5.710;2023-07-09T02:34:56;20.60;99.90
18502;DHT22;68437;52.236;5.710;2023-07-09T02:37:25;20.60;99.90
18502;DHT22;68437;52.236;5.710;2023-07-09T02:39:53;20.60;99.90
18502;DHT22;68437;52.236;5.710;2023-07-09T02:42:21;20.60;99.90
18502;DHT22;68437;52.236;5.710;2023-07-09T02:44:48;20.50;99.90
18502;DHT22;68437;52.236;5.710;2023-07-09T02:47:16;20.60;99.90
18502;DHT22;68437;52.236;5.710;2023-07-09T02:49:44;20.60;99.90
18502;DHT22;68437;52.236;5.710;2023-07-09T02:52:11;20.60;99.90
18502;DHT22;68437;52.236;5.710;2023-07-09T02:54:38;20.60;99.90
18502;DHT22;68437;52.236;5.710;2023-07-09T02:57:05;20.60;99.90
18502;DHT22;68437;52.236;5.710;2023-07-09T02:59:32;20.60;99.90
18502;DHT22;68437;52.236;5.710;2023-07-09T03:02:00;20.60;99.90
18502;DHT22;68437;52.236;5.710;2023-07-09T03:04:27;20.50;99.90
18502;DHT22;68437;52.236;5.710;2023-07-09T03:06:55;20.60;99.90
18502;DHT22;68437;52.236;5.710;2023-07-09T03:09:22;20.50;99.90
18502;DHT22;68437;52.236;5.710;2023-07-09T03:11:49;20.50;99.90
18502;DHT22;68437;52.236;5.710;2023-07-09T03:14:17;20.40;99.90
18502;DHT22;68437;52.236;5.710;2023-07-09T03:16:44;20.40;99.90
18502;DHT22;68437;52.236;5.710;2023-07-09T03:19:11;20.40;99.90
18502;DHT22;68437;52.236;5.710;2023-07-09T03:21:38;20.40;99.90
18502;DHT22;68437;52.236;5.710;2023-07-09T03:24:07;20.40;99.90
18502;DHT22;68437;52.236;5.710;2023-07-09T03:26:34;20.40;99.90
18502;DHT22;68437;52.236;5.710;2023-07-09T03:29:01;20.40;99.90
18502;DHT22;68437;52.236;5.710;2023-07-09T03:31:27;20.30;99.90
18502;DHT22;68437;52.236;5.710;2023-07-09T03:33:54;20.30;99.90
18502;DHT22;68437;52.236;5.710;2023-07-09T03:36:21;20.30;99.90
18502;DHT22;68437;52.236;5.710;2023-07-09T03:38:48;20.20;99.90
18502;DHT22;68437;52.236;5.710;2023-07-09T03:41:16;20.30;99.90
18502;DHT22;68437;52.236;5.710;2023-07-09T03:43:43;20.30;99.90
18502;DHT22;68437;52.236;5.710;2023-07-09T03:46:10;20.20;99.90
18502;DHT22;68437;52.236;5.710;2023-07-09T03:48:38;20.20;99.90
18502;DHT22;68437;52.236;5.710;2023-07-09T03:51:04;20.20;99.90
18502;DHT22;68437;52.236;5.710;2023-07-09T03:53:31;20.20;99.90
18502;DHT22;68437;52.236;5.710;2023-07-09T03:55:58;20.30;99.90
18502;DHT22;68437;52.236;5.710;2023-07-09T03:58:27;20.30;99.90
18502;DHT22;68437;52.236;5.710;2023-07-09T04:00:54;20.30;99.90
18502;DHT22;68437;52.236;5.710;2023-07-09T04:03:21;20.30;99.90
18502;DHT22;68437;52.236;5.710;2023-07-09T04:05:49;20.30;99.90
18502;DHT22;68437;52.236;5.710;2023-07-09T04:08:16;20.30;99.90
18502;DHT22;68437;52.236;5.710;2023-07-09T04:10:43;20.40;99.90
18502;DHT22;68437;52.236;5.710;2023-07-09T04:13:09;20.30;99.90
18502;DHT22;68437;52.236;5.710;2023-07-09T04:15:38;20.40;99.90
18502;DHT22;68437;52.236;5.710;2023-07-09T04:18:05;20.50;99.90
18502;DHT22;68437;52.236;5.710;2023-07-09T04:20:32;20.50;99.90
18502;DHT22;68437;52.236;5.710;2023-07-09T04:23:00;20.60;99.90
18502;DHT22;68437;52.236;5.710;2023-07-09T04:25:27;20.70;99.90
18502;DHT22;68437;52.236;5.710;2023-07-09T04:27:54;20.80;99.90
18502;DHT22;68437;52.236;5.710;2023-07-09T04:30:21;20.80;99.90
18502;DHT22;68437;52.236;5.710;2023-07-09T04:32:49;20.90;99.90
18502;DHT22;68437;52.236;5.710;2023-07-09T04:35:16;21.00;99.90
18502;DHT22;68437;52.236;5.710;2023-07-09T04:37:43;21.10;99.90
18502;DHT22;68437;52.236;5.710;2023-07-09T04:40:11;21.20;99.90
18502;DHT22;68437;52.236;5.710;2023-07-09T04:42:39;21.30;99.90
18502;DHT22;68437;52.236;5.710;2023-07-09T04:45:07;21.40;99.90
18502;DHT22;68437;52.236;5.710;2023-07-09T04:47:35;21.40;99.90
18502;DHT22;68437;52.236;5.710;2023-07-09T04:50:05;21.40;99.90
18502;DHT22;68437;52.236;5.710;2023-07-09T04:52:33;21.50;99.90
18502;DHT22;68437;52.236;5.710;2023-07-09T04:55:00;21.50;99.90
18502;DHT22;68437;52.236;5.710;2023-07-09T04:57:27;21.50;99.90
18502;DHT22;68437;52.236;5.710;2023-07-09T04:59:57;21.50;99.90
18502;DHT22;68437;52.236;5.710;2023-07-09T05:02:24;21.60;99.90
18502;DHT22;68437;52.236;5.710;2023-07-09T05:04:51;21.50;99.90
18502;DHT22;68437;52.236;5.710;2023-07-09T05:07:20;21.60;99.90
18502;DHT22;68437;52.236;5.710;2023-07-09T05:09:47;21.70;99.90
18502;DHT22;68437;52.236;5.710;2023-07-09T05:12:14;21.80;99.90
18502;DHT22;68437;52.236;5.710;2023-07-09T05:14:41;21.90;99.90
18502;DHT22;68437;52.236;5.710;2023-07-09T05:17:08;22.00;99.90
18502;DHT22;68437;52.236;5.710;2023-07-09T05:19:36;22.10;99.90
18502;DHT22;68437;52.236;5.710;2023-07-09T05:22:03;22.10;99.90
18502;DHT22;68437;52.236;5.710;2023-07-09T05:24:32;22.20;99.90
18502;DHT22;68437;52.236;5.710;2023-07-09T05:26:59;22.20;99.90
18502;DHT22;68437;52.236;5.710;2023-07-09T05:29:26;22.30;99.90
18502;DHT22;68437;52.236;5.710;2023-07-09T05:31:53;22.40;99.90
18502;DHT22;68437;52.236;5.710;2023-07-09T05:34:20;22.40;99.90
18502;DHT22;68437;52.236;5.710;2023-07-09T05:36:47;22.50;99.90
18502;DHT22;68437;52.236;5.710;2023-07-09T05:39:14;22.50;99.90
18502;DHT22;68437;52.236;5.710;2023-07-09T05:41:43;22.60;99.90
18502;DHT22;68437;52.236;5.710;2023-07-09T05:44:10;22.60;99.90
18502;DHT22;68437;52.236;5.710;2023-07-09T05:46:37;22.60;99.90
18502;DHT22;68437;52.236;5.710;2023-07-09T05:49:05;22.70;99.90
18502;DHT22;68437;52.236;5.710;2023-07-09T05:51:32;22.80;99.90
18502;DHT22;68437;52.236;5.710;2023-07-09T05:53:59;22.90;99.90
18502;DHT22;68437;52.236;5.710;2023-07-09T05:56:26;22.90;99.90
18502;DHT22;68437;52.236;5.710;2023-07-09T05:58:54;23.00;99.90
18502;DHT22;68437;52.236;5.710;2023-07-09T06:01:22;23.20;99.90
18502;DHT22;68437;52.236;5.710;2023-07-09T06:03:49;23.30;99.90
18502;DHT22;68437;52.236;5.710;2023-07-09T06:06:16;23.40;99.90
18502;DHT22;68437;52.236;5.710;2023-07-09T06:08:43;23.60;99.90
18502;DHT22;68437;52.236;5.710;2023-07-09T06:11:09;23.70;99.90
18502;DHT22;68437;52.236;5.710;2023-07-09T06:13:36;23.90;99.90
18502;DHT22;68437;52.236;5.710;2023-07-09T06:16:05;24.00;99.90
18502;DHT22;68437;52.236;5.710;2023-07-09T06:18:32;24.10;99.90
18502;DHT22;68437;52.236;5.710;2023-07-09T06:21:00;24.20;99.90
18502;DHT22;68437;52.236;5.710;2023-07-09T06:23:28;24.40;99.90
18502;DHT22;68437;52.236;5.710;2023-07-09T06:25:56;24.40;99.90
18502;DHT22;68437;52.236;5.710;2023-07-09T06:28:24;24.50;99.90
18502;DHT22;68437;52.236;5.710;2023-07-09T06:30:52;24.60;99.90
18502;DHT22;68437;52.236;5.710;2023-07-09T06:33:20;24.60;99.90
18502;DHT22;68437;52.236;5.710;2023-07-09T06:35:47;24.70;99.90
18502;DHT22;68437;52.236;5.710;2023-07-09T06:38:15;24.80;99.90
18502;DHT22;68437;52.236;5.710;2023-07-09T06:40:41;24.80;99.90
18502;DHT22;68437;52.236;5.710;2023-07-09T06:43:08;24.90;99.90
18502;DHT22;68437;52.236;5.710;2023-07-09T06:45:35;25.00;99.90
18502;DHT22;68437;52.236;5.710;2023-07-09T06:48:03;25.10;99.90
18502;DHT22;68437;52.236;5.710;2023-07-09T06:50:34;25.20;99.90
18502;DHT22;68437;52.236;5.710;2023-07-09T06:53:01;25.20;99.90
18502;DHT22;68437;52.236;5.710;2023-07-09T06:55:28;25.30;99.90
18502;DHT22;68437;52.236;5.710;2023-07-09T06:57:55;25.40;99.90
18502;DHT22;68437;52.236;5.710;2023-07-09T07:00:22;25.50;99.90
18502;DHT22;68437;52.236;5.710;2023-07-09T07:02:49;25.60;99.90
18502;DHT22;68437;52.236;5.710;2023-07-09T07:05:16;25.80;99.90
18502;DHT22;68437;52.236;5.710;2023-07-09T07:07:45;25.80;99.90
18502;DHT22;68437;52.236;5.710;2023-07-09T07:10:12;25.90;99.90
18502;DHT22;68437;52.236;5.710;2023-07-09T07:12:44;26.00;99.90
18502;DHT22;68437;52.236;5.710;2023-07-09T07:15:12;26.10;99.90
18502;DHT22;68437;52.236;5.710;2023-07-09T07:17:40;26.20;99.90
18502;DHT22;68437;52.236;5.710;2023-07-09T07:20:08;26.30;99.90
18502;DHT22;68437;52.236;5.710;2023-07-09T07:22:35;26.40;99.90
18502;DHT22;68437;52.236;5.710;2023-07-09T07:25:05;26.50;99.90
18502;DHT22;68437;52.236;5.710;2023-07-09T07:27:33;26.50;99.90
18502;DHT22;68437;52.236;5.710;2023-07-09T07:30:00;26.60;99.90
18502;DHT22;68437;52.236;5.710;2023-07-09T07:32:27;26.60;99.90
18502;DHT22;68437;52.236;5.710;2023-07-09T07:34:54;26.80;99.90
18502;DHT22;68437;52.236;5.710;2023-07-09T07:37:21;26.90;99.90
18502;DHT22;68437;52.236;5.710;2023-07-09T07:39:48;27.00;99.90
18502;DHT22;68437;52.236;5.710;2023-07-09T07:42:17;27.20;99.90
18502;DHT22;68437;52.236;5.710;2023-07-09T07:44:45;27.30;99.90
18502;DHT22;68437;52.236;5.710;2023-07-09T07:47:12;27.40;99.90
18502;DHT22;68437;52.236;5.710;2023-07-09T07:49:38;27.50;99.90
18502;DHT22;68437;52.236;5.710;2023-07-09T07:52:06;27.50;99.90
18502;DHT22;68437;52.236;5.710;2023-07-09T07:54:33;27.70;99.90
18502;DHT22;68437;52.236;5.710;2023-07-09T07:57:00;27.80;99.90
18502;DHT22;68437;52.236;5.710;2023-07-09T07:59:29;27.90;99.90
18502;DHT22;68437;52.236;5.710;2023-07-09T08:01:58;27.90;99.90
18502;DHT22;68437;52.236;5.710;2023-07-09T08:04:25;28.00;99.90
18502;DHT22;68437;52.236;5.710;2023-07-09T08:06:52;28.10;99.90
18502;DHT22;68437;52.236;5.710;2023-07-09T08:09:19;28.20;99.90
18502;DHT22;68437;52.236;5.710;2023-07-09T08:11:46;28.30;99.90
18502;DHT22;68437;52.236;5.710;2023-07-09T08:14:15;28.30;99.90
18502;DHT22;68437;52.236;5.710;2023-07-09T08:16:43;28.40;99.90
18502;DHT22;68437;52.236;5.710;2023-07-09T08:19:10;28.50;99.90
18502;DHT22;68437;52.236;5.710;2023-07-09T08:21:37;28.70;99.90
18502;DHT22;68437;52.236;5.710;2023-07-09T08:24:04;28.80;99.90
18502;DHT22;68437;52.236;5.710;2023-07-09T08:26:31;29.00;99.90
18502;DHT22;68437;52.236;5.710;2023-07-09T08:28:58;29.00;99.90
18502;DHT22;68437;52.236;5.710;2023-07-09T08:31:25;29.10;99.90
18502;DHT22;68437;52.236;5.710;2023-07-09T08:33:53;29.20;99.90
18502;DHT22;68437;52.236;5.710;2023-07-09T08:36:20;29.30;99.90
18502;DHT22;68437;52.236;5.710;2023-07-09T08:38:47;29.50;99.90
18502;DHT22;68437;52.236;5.710;2023-07-09T08:41:25;29.50;99.90
18502;DHT22;68437;52.236;5.710;2023-07-09T08:44:04;29.60;99.90
18502;DHT22;68437;52.236;5.710;2023-07-09T08:46:43;29.60;99.90
18502;DHT22;68437;52.236;5.710;2023-07-09T08:49:18;29.70;99.90
18502;DHT22;68437;52.236;5.710;2023-07-09T08:51:47;29.70;99.90
18502;DHT22;68437;52.236;5.710;2023-07-09T08:54:20;29.80;99.90
18502;DHT22;68437;52.236;5.710;2023-07-09T08:56:50;30.00;99.90
18502;DHT22;68437;52.236;5.710;2023-07-09T08:59:18;30.10;99.90
18502;DHT22;68437;52.236;5.710;2023-07-09T09:01:50;30.20;99.90
18502;DHT22;68437;52.236;5.710;2023-07-09T09:04:23;30.30;99.90
18502;DHT22;68437;52.236;5.710;2023-07-09T09:06:59;30.30;99.90
18502;DHT22;68437;52.236;5.710;2023-07-09T09:09:32;30.40;99.90
18502;DHT22;68437;52.236;5.710;2023-07-09T09:12:07;30.50;99.90
18502;DHT22;68437;52.236;5.710;2023-07-09T09:14:39;30.60;99.90
18502;DHT22;68437;52.236;5.710;2023-07-09T09:17:11;30.70;99.90
18502;DHT22;68437;52.236;5.710;2023-07-09T09:19:45;30.80;99.90
18502;DHT22;68437;52.236;5.710;2023-07-09T09:22:15;30.90;99.90
18502;DHT22;68437;52.236;5.710;2023-07-09T09:24:55;30.90;99.90
18502;DHT22;68437;52.236;5.710;2023-07-09T09:27:23;31.00;99.90
18502;DHT22;68437;52.236;5.710;2023-07-09T09:29:51;31.10;99.90
18502;DHT22;68437;52.236;5.710;2023-07-09T09:32:22;31.10;99.90
18502;DHT22;68437;52.236;5.710;2023-07-09T09:34:53;31.20;99.90
18502;DHT22;68437;52.236;5.710;2023-07-09T09:37:25;31.40;99.90
18502;DHT22;68437;52.236;5.710;2023-07-09T09:39:53;31.40;99.90
18502;DHT22;68437;52.236;5.710;2023-07-09T09:42:19;31.50;99.90
18502;DHT22;68437;52.236;5.710;2023-07-09T09:44:46;31.50;99.90
18502;DHT22;68437;52.236;5.710;2023-07-09T09:47:13;31.60;99.90
18502;DHT22;68437;52.236;5.710;2023-07-09T09:49:42;31.70;99.90
18502;DHT22;68437;52.236;5.710;2023-07-09T09:52:13;31.70;99.90
18502;DHT22;68437;52.236;5.710;2023-07-09T09:54:43;31.70;99.90
18502;DHT22;68437;52.236;5.710;2023-07-09T09:57:16;31.90;99.90
18502;DHT22;68437;52.236;5.710;2023-07-09T09:59:45;32.00;99.90
18502;DHT22;68437;52.236;5.710;2023-07-09T10:02:16;32.10;99.90
18502;DHT22;68437;52.236;5.710;2023-07-09T10:04:44;32.10;99.90
18502;DHT22;68437;52.236;5.710;2023-07-09T10:07:18;32.10;99.90
18502;DHT22;68437;52.236;5.710;2023-07-09T10:09:49;31.90;99.90
18502;DHT22;68437;52.236;5.710;2023-07-09T10:12:28;32.00;99.90
18502;DHT22;68437;52.236;5.710;2023-07-09T10:15:05;31.90;99.90
18502;DHT22;68437;52.236;5.710;2023-07-09T10:17:37;31.90;99.90
18502;DHT22;68437;52.236;5.710;2023-07-09T10:20:09;32.00;99.90
18502;DHT22;68437;52.236;5.710;2023-07-09T10:22:50;32.10;99.90
18502;DHT22;68437;52.236;5.710;2023-07-09T10:25:29;32.00;99.90
18502;DHT22;68437;52.236;5.710;2023-07-09T10:30:59;31.50;99.90
18502;DHT22;68437;52.236;5.710;2023-07-09T10:33:40;31.40;99.90
18502;DHT22;68437;52.236;5.710;2023-07-09T10:36:22;31.30;99.90
18502;DHT22;68437;52.236;5.710;2023-07-09T10:38:56;31.50;99.90
18502;DHT22;68437;52.236;5.710;2023-07-09T10:41:26;31.70;99.90
18502;DHT22;68437;52.236;5.710;2023-07-09T10:43:57;31.90;99.90
18502;DHT22;68437;52.236;5.710;2023-07-09T10:46:28;32.10;99.90
18502;DHT22;68437;52.236;5.710;2023-07-09T10:48:57;31.90;99.90
18502;DHT22;68437;52.236;5.710;2023-07-09T10:51:29;31.60;99.90
18502;DHT22;68437;52.236;5.710;2023-07-09T10:54:04;31.50;99.90
18502;DHT22;68437;52.236;5.710;2023-07-09T10:56:34;31.50;99.90
18502;DHT22;68437;52.236;5.710;2023-07-09T10:59:06;31.70;99.90
18502;DHT22;68437;52.236;5.710;2023-07-09T11:01:41;31.90;99.90
18502;DHT22;68437;52.236;5.710;2023-07-09T11:04:13;31.90;99.90
18502;DHT22;68437;52.236;5.710;2023-07-09T11:06:46;31.90;99.90
18502;DHT22;68437;52.236;5.710;2023-07-09T11:09:32;31.70;99.90
18502;DHT22;68437;52.236;5.710;2023-07-09T11:12:02;31.50;99.90
18502;DHT22;68437;52.236;5.710;2023-07-09T11:14:34;31.50;99.90
18502;DHT22;68437;52.236;5.710;2023-07-09T11:17:04;31.50;99.90
18502;DHT22;68437;52.236;5.710;2023-07-09T11:19:41;31.50;99.90
18502;DHT22;68437;52.236;5.710;2023-07-09T11:22:15;31.60;99.90
18502;DHT22;68437;52.236;5.710;2023-07-09T11:24:49;31.70;99.90
18502;DHT22;68437;52.236;5.710;2023-07-09T11:27:19;31.90;99.90
18502;DHT22;68437;52.236;5.710;2023-07-09T11:29:47;32.10;99.90
18502;DHT22;68437;52.236;5.710;2023-07-09T11:32:21;32.30;99.90
18502;DHT22;68437;52.236;5.710;2023-07-09T11:34:48;32.60;99.90
18502;DHT22;68437;52.236;5.710;2023-07-09T11:37:16;32.70;99.90
18502;DHT22;68437;52.236;5.710;2023-07-09T11:39:45;33.00;99.90
18502;DHT22;68437;52.236;5.710;2023-07-09T11:42:29;33.10;99.90
18502;DHT22;68437;52.236;5.710;2023-07-09T11:45:07;33.40;99.90
18502;DHT22;68437;52.236;5.710;2023-07-09T11:47:39;33.70;99.90
18502;DHT22;68437;52.236;5.710;2023-07-09T11:50:20;33.70;99.90
18502;DHT22;68437;52.236;5.710;2023-07-09T11:52:51;33.60;99.90
18502;DHT22;68437;52.236;5.710;2023-07-09T11:55:24;33.60;99.90
18502;DHT22;68437;52.236;5.710;2023-07-09T11:58:00;33.60;99.90
18502;DHT22;68437;52.236;5.710;2023-07-09T12:00:30;33.40;99.90
18502;DHT22;68437;52.236;5.710;2023-07-09T12:03:04;33.10;99.90
18502;DHT22;68437;52.236;5.710;2023-07-09T12:05:31;33.10;99.90
18502;DHT22;68437;52.236;5.710;2023-07-09T12:07:58;33.10;99.90
18502;DHT22;68437;52.236;5.710;2023-07-09T12:10:28;33.10;99.90
18502;DHT22;68437;52.236;5.710;2023-07-09T12:13:01;33.00;99.90
18502;DHT22;68437;52.236;5.710;2023-07-09T12:15:30;33.00;99.90
18502;DHT22;68437;52.236;5.710;2023-07-09T12:17:59;33.00;99.90
18502;DHT22;68437;52.236;5.710;2023-07-09T12:20:29;32.80;99.90
18502;DHT22;68437;52.236;5.710;2023-07-09T12:22:56;32.80;99.90
18502;DHT22;68437;52.236;5.710;2023-07-09T12:25:24;32.80;99.90
18502;DHT22;68437;52.236;5.710;2023-07-09T12:27:52;32.70;99.90
18502;DHT22;68437;52.236;5.710;2023-07-09T12:30:21;32.70;99.90
18502;DHT22;68437;52.236;5.710;2023-07-09T12:32:50;32.70;99.90
18502;DHT22;68437;52.236;5.710;2023-07-09T12:35:19;32.70;99.90
18502;DHT22;68437;52.236;5.710;2023-07-09T12:37:48;32.70;99.90
18502;DHT22;68437;52.236;5.710;2023-07-09T12:40:21;32.60;99.90
18502;DHT22;68437;52.236;5.710;2023-07-09T12:42:48;32.60;99.90
18502;DHT22;68437;52.236;5.710;2023-07-09T12:45:17;32.80;99.90
18502;DHT22;68437;52.236;5.710;2023-07-09T12:47:47;32.80;99.90
18502;DHT22;68437;52.236;5.710;2023-07-09T12:50:25;33.00;99.90
18502;DHT22;68437;52.236;5.710;2023-07-09T12:52:55;33.20;99.90
18502;DHT22;68437;52.236;5.710;2023-07-09T12:55:24;33.30;99.90
18502;DHT22;68437;52.236;5.710;2023-07-09T12:57:54;33.30;99.90
18502;DHT22;68437;52.236;5.710;2023-07-09T13:00:22;33.20;99.90
18502;DHT22;68437;52.236;5.710;2023-07-09T13:02:54;33.00;99.90
18502;DHT22;68437;52.236;5.710;2023-07-09T13:05:23;33.00;99.90
18502;DHT22;68437;52.236;5.710;2023-07-09T13:07:52;32.90;99.90
18502;DHT22;68437;52.236;5.710;2023-07-09T13:10:23;32.70;99.90
18502;DHT22;68437;52.236;5.710;2023-07-09T13:12:53;32.50;99.90
18502;DHT22;68437;52.236;5.710;2023-07-09T13:15:28;32.50;99.90
18502;DHT22;68437;52.236;5.710;2023-07-09T13:18:01;32.50;99.90
18502;DHT22;68437;52.236;5.710;2023-07-09T13:20:31;32.40;99.90
18502;DHT22;68437;52.236;5.710;2023-07-09T13:22:58;32.50;99.90
18502;DHT22;68437;52.236;5.710;2023-07-09T13:25:25;32.40;99.90
18502;DHT22;68437;52.236;5.710;2023-07-09T13:27:53;32.20;99.90
18502;DHT22;68437;52.236;5.710;2023-07-09T13:30:20;31.90;99.90
18502;DHT22;68437;52.236;5.710;2023-07-09T13:32:48;31.60;99.90
18502;DHT22;68437;52.236;5.710;2023-07-09T13:35:18;31.20;99.90
18502;DHT22;68437;52.236;5.710;2023-07-09T13:37:46;30.70;99.90
18502;DHT22;68437;52.236;5.710;2023-07-09T13:40:14;30.00;99.90
18502;DHT22;68437;52.236;5.710;2023-07-09T13:42:42;29.30;99.90
18502;DHT22;68437;52.236;5.710;2023-07-09T13:45:17;28.80;99.90
18502;DHT22;68437;52.236;5.710;2023-07-09T13:47:45;28.70;99.90
18502;DHT22;68437;52.236;5.710;2023-07-09T13:50:17;28.60;99.90
18502;DHT22;68437;52.236;5.710;2023-07-09T13:52:44;28.60;99.90
18502;DHT22;68437;52.236;5.710;2023-07-09T13:55:17;28.30;99.90
18502;DHT22;68437;52.236;5.710;2023-07-09T13:57:44;27.90;99.90
18502;DHT22;68437;52.236;5.710;2023-07-09T14:00:12;27.60;99.90
18502;DHT22;68437;52.236;5.710;2023-07-09T14:02:43;27.40;99.90
18502;DHT22;68437;52.236;5.710;2023-07-09T14:05:14;27.40;99.90
18502;DHT22;68437;52.236;5.710;2023-07-09T14:07:42;27.20;99.90
18502;DHT22;68437;52.236;5.710;2023-07-09T14:10:13;27.20;99.90
18502;DHT22;68437;52.236;5.710;2023-07-09T14:12:45;27.10;99.90
18502;DHT22;68437;52.236;5.710;2023-07-09T14:15:15;27.20;99.90
18502;DHT22;68437;52.236;5.710;2023-07-09T14:17:43;27.20;99.90
18502;DHT22;68437;52.236;5.710;2023-07-09T14:20:13;26.90;99.90
18502;DHT22;68437;52.236;5.710;2023-07-09T14:22:42;26.80;99.90
18502;DHT22;68437;52.236;5.710;2023-07-09T14:25:18;26.80;99.90
18502;DHT22;68437;52.236;5.710;2023-07-09T14:27:45;26.60;99.90
18502;DHT22;68437;52.236;5.710;2023-07-09T14:30:14;26.50;99.90
18502;DHT22;68437;52.236;5.710;2023-07-09T14:32:42;26.30;99.90
18502;DHT22;68437;52.236;5.710;2023-07-09T14:35:16;26.10;99.90
18502;DHT22;68437;52.236;5.710;2023-07-09T14:37:47;25.90;99.90
18502;DHT22;68437;52.236;5.710;2023-07-09T14:40:15;25.80;99.90
18502;DHT22;68437;52.236;5.710;2023-07-09T14:42:43;25.60;99.90
18502;DHT22;68437;52.236;5.710;2023-07-09T14:45:19;25.10;99.90
18502;DHT22;68437;52.236;5.710;2023-07-09T14:47:46;24.60;99.90
18502;DHT22;68437;52.236;5.710;2023-07-09T14:50:13;24.40;99.90
18502;DHT22;68437;52.236;5.710;2023-07-09T14:52:41;24.20;99.90
18502;DHT22;68437;52.236;5.710;2023-07-09T14:55:14;24.20;99.90
18502;DHT22;68437;52.236;5.710;2023-07-09T14:57:41;24.00;99.90
18502;DHT22;68437;52.236;5.710;2023-07-09T15:00:13;23.80;99.90
18502;DHT22;68437;52.236;5.710;2023-07-09T15:02:41;23.60;99.90
18502;DHT22;68437;52.236;5.710;2023-07-09T15:05:13;23.50;99.90
18502;DHT22;68437;52.236;5.710;2023-07-09T15:07:40;23.30;99.90
18502;DHT22;68437;52.236;5.710;2023-07-09T15:10:14;23.30;99.90
18502;DHT22;68437;52.236;5.710;2023-07-09T15:12:42;23.30;99.90
18502;DHT22;68437;52.236;5.710;2023-07-09T15:15:17;23.30;99.90
18502;DHT22;68437;52.236;5.710;2023-07-09T15:17:45;23.20;99.90
18502;DHT22;68437;52.236;5.710;2023-07-09T15:20:15;22.90;99.90
18502;DHT22;68437;52.236;5.710;2023-07-09T15:22:43;22.00;99.90
18502;DHT22;68437;52.236;5.710;2023-07-09T15:25:18;21.10;99.90
18502;DHT22;68437;52.236;5.710;2023-07-09T15:27:46;20.70;99.90
18502;DHT22;68437;52.236;5.710;2023-07-09T15:30:15;20.60;99.90
18502;DHT22;68437;52.236;5.710;2023-07-09T15:32:44;20.50;99.90
18502;DHT22;68437;52.236;5.710;2023-07-09T15:35:11;20.30;99.90
18502;DHT22;68437;52.236;5.710;2023-07-09T15:37:38;20.30;99.90
18502;DHT22;68437;52.236;5.710;2023-07-09T15:40:17;20.40;99.90
18502;DHT22;68437;52.236;5.710;2023-07-09T15:42:45;20.30;99.90
18502;DHT22;68437;52.236;5.710;2023-07-09T15:45:14;20.30;99.90